Startpagina
METAR-TAF:

METAR-TAF

Vliegvelden :

Djedda, Saoedi-Arabië

breedte: 21-42N, lengte: 039-11E, hoogte: 15 m

Actueel weer

Dit bericht is 18 minuten geleden gemaakt, om 19:00 UTC
Wind 4 kt uit het noorden
Temperatuur 29°C
Vochtigheid 70%
Druk 1010 hPa
Zicht 10 km of meer
geen wolken onder 1500 m en geen cumulonimbus

METAR: OEJN 211900Z 36004KT CAVOK 29/23 Q1010 NOSIG

Tijdstip: 22:18 (19:18 UTC)

Verwachting

Dit bericht is 2 uur en het 18 minuten geleden gemaakt, om 17:00 UTC
Verwachting geldig van 21 om 18 UTC tot 22 om 24 UTC
Wind 6 kt uit het noordoosten
Zicht 10 km of meer
geen wolken onder 1500 m en geen cumulonimbus
Kans 30% :
Tijdelijke
van 22 om 00 UTC tot 22 om 05 UTC
Zicht: 5000 m
nevel, Heiigheid
Wijzigt naar
van 22 om 07 UTC tot 22 om 09 UTC
Wind 14 kt uit het westen

TAF: OEJN 211700Z 2118/2224 04006KT CAVOK PROB30 TEMPO 2200/2205 5000 BR HZ BECMG 2207/2209 27014KT

Waarnemingen en weersverwachtingen van meer dan 4000 vliegvelden (METAR en TAF).

De beschikbare stations zijn de gele en rode punten op de kaart.

Ga met uw muis naar het station om de naam te zien.

Klik dan om waarnemingen en weersverwachtingen te zien.

kaart wijzigen: klik op de groene knoppen met een zwart kruis om in te zoomen, op de groene knop met een streepje om uit te zoomen of op de groene pijlen voor aangrenzende kaarten.


METAR-TAF: